Time;durP1;ratioP1;P1;durP2;ratioP2;P2;SDS_P1;SDS_P2;PMS_P1;PMS_P2;Temp;Humidity;BMP_temperature;BMP_pressure;BME280_temperature;BME280_humidity;BME280_pressure;Samples;Min_cycle;Max_cycle;Signal;HPM_P1;HPM_P2
2021/08/11 00:01:40;;;;;;;5.63;5.03;;;21.30;69.70;;;;;;5079765;28;20579;-81
2021/08/11 00:04:07;;;;;;;5.75;5.15;;;21.20;69.70;;;;;;4994298;28;20617;-83
2021/08/11 00:06:34;;;;;;;5.55;5.05;;;21.30;69.70;;;;;;5045907;28;20294;-84
2021/08/11 00:09:03;;;;;;;5.72;5.13;;;21.20;69.60;;;;;;5046221;28;20190;-81
2021/08/11 00:11:31;;;;;;;6.03;5.43;;;21.30;69.70;;;;;;5045623;28;20230;-82
2021/08/11 00:14:01;;;;;;;5.65;5.05;;;21.20;69.60;;;;;;4994414;28;20199;-86
2021/08/11 00:16:29;;;;;;;5.75;5.15;;;21.30;69.70;;;;;;4994558;28;20187;-82
2021/08/11 00:18:57;;;;;;;5.70;5.15;;;21.20;69.50;;;;;;5045773;28;20185;-84
2021/08/11 00:21:24;;;;;;;6.45;5.68;;;21.30;69.70;;;;;;5062403;28;20183;-80
2021/08/11 00:23:54;;;;;;;5.60;5.00;;;21.30;69.70;;;;;;5062574;28;20194;-81
2021/08/11 00:26:21;;;;;;;6.00;5.40;;;21.30;69.70;;;;;;5062728;28;20743;-81
2021/08/11 00:28:48;;;;;;;5.72;5.03;;;21.30;69.70;;;;;;5062211;28;20520;-81
2021/08/11 00:31:15;;;;;;;5.70;5.10;;;21.30;69.60;;;;;;4993824;28;20180;-84
2021/08/11 00:33:42;;;;;;;6.20;5.60;;;21.30;69.60;;;;;;5062457;28;20674;-81
2021/08/11 00:36:14;;;;;;;5.97;5.38;;;21.30;69.60;;;;;;5062336;28;20591;-81
2021/08/11 00:38:45;;;;;;;5.85;5.25;;;21.30;69.60;;;;;;5079149;28;20176;-81
2021/08/11 00:41:13;;;;;;;5.78;5.10;;;21.30;69.70;;;;;;5079264;28;20669;-80
2021/08/11 00:43:40;;;;;;;5.93;5.32;;;21.30;69.70;;;;;;5061414;28;20192;-83
2021/08/11 00:46:09;;;;;;;6.05;5.45;;;21.20;69.50;;;;;;5061859;28;20265;-83
2021/08/11 00:48:37;;;;;;;5.85;5.25;;;21.30;69.70;;;;;;5078846;28;20271;-81
2021/08/11 00:51:04;;;;;;;5.43;4.93;;;21.30;69.70;;;;;;5078609;28;20179;-87
2021/08/11 00:53:36;;;;;;;6.03;5.43;;;21.30;69.70;;;;;;4993832;28;20191;-84
2021/08/11 00:56:02;;;;;;;5.82;5.22;;;21.20;69.60;;;;;;4977570;28;20195;-85
2021/08/11 00:58:30;;;;;;;5.95;5.00;;;21.20;69.60;;;;;;5061930;28;20184;-84
2021/08/11 01:01:00;;;;;;;5.72;4.90;;;21.30;69.60;;;;;;5010897;28;20317;-81
2021/08/11 01:03:30;;;;;;;5.80;5.20;;;21.30;69.70;;;;;;4993388;28;20596;-84
2021/08/11 01:06:00;;;;;;;5.75;4.93;;;21.20;69.60;;;;;;5061741;28;20211;-82
2021/08/11 01:08:26;;;;;;;6.13;5.53;;;21.20;69.60;;;;;;4994641;28;20176;-83
2021/08/11 01:10:52;;;;;;;5.40;4.88;;;21.20;69.60;;;;;;5016375;28;20256;-82
2021/08/11 01:13:22;;;;;;;5.25;4.75;;;21.30;69.70;;;;;;5031459;28;20690;-83
2021/08/11 01:15:53;;;;;;;5.85;5.25;;;21.30;69.60;;;;;;5081969;28;20587;-83
2021/08/11 01:18:26;;;;;;;5.90;5.30;;;21.30;69.60;;;;;;5064675;28;20297;-83
2021/08/11 01:21:00;;;;;;;5.45;4.93;;;21.30;69.70;;;;;;5065073;28;20231;-84
2021/08/11 01:23:35;;;;;;;5.97;5.32;;;21.30;69.70;;;;;;5031241;28;20245;-79
2021/08/11 01:26:10;;;;;;;5.38;4.85;;;21.30;69.70;;;;;;5080119;28;20210;-81
2021/08/11 01:28:51;;;;;;;5.97;5.38;;;21.20;69.50;;;;;;5063765;28;20178;-79
2021/08/11 01:31:19;;;;;;;5.90;5.30;;;21.30;69.60;;;;;;5080200;28;20179;-78
2021/08/11 01:34:01;;;;;;;6.07;5.40;;;21.30;69.60;;;;;;5029694;28;20155;-84
2021/08/11 01:36:46;;;;;;;5.80;5.18;;;21.30;69.60;;;;;;5029753;28;20212;-81
2021/08/11 01:39:35;;;;;;;5.65;5.15;;;21.20;69.50;;;;;;5031090;28;20165;-81
2021/08/11 01:42:17;;;;;;;7.32;5.90;;;21.20;69.50;;;;;;5029793;28;20166;-79
2021/08/11 01:44:50;;;;;;;5.85;5.13;;;21.30;69.60;;;;;;5062104;28;20537;-82
2021/08/11 01:47:22;;;;;;;5.75;5.18;;;21.30;69.60;;;;;;5029690;28;20199;-85
2021/08/11 01:49:52;;;;;;;5.55;4.97;;;21.30;69.60;;;;;;5063697;28;20194;-82
2021/08/11 01:52:18;;;;;;;6.00;5.28;;;21.20;69.50;;;;;;5081280;28;20183;-84
2021/08/11 01:54:48;;;;;;;5.97;5.38;;;21.20;69.50;;;;;;5029482;28;20151;-82
2021/08/11 01:57:18;;;;;;;6.22;5.53;;;21.30;69.60;;;;;;5064259;28;20237;-82
2021/08/11 01:59:48;;;;;;;6.35;5.70;;;21.20;69.50;;;;;;4996441;28;20187;-81
2021/08/11 02:02:14;;;;;;;5.57;5.00;;;21.30;69.60;;;;;;5081249;28;20178;-81
2021/08/11 02:04:40;;;;;;;5.65;5.07;;;21.30;69.60;;;;;;5012759;28;20181;-83
2021/08/11 02:07:10;;;;;;;5.80;5.20;;;21.30;69.60;;;;;;5028642;28;20273;-78
2021/08/11 02:09:36;;;;;;;5.97;5.13;;;21.30;69.60;;;;;;5064118;28;20185;-77
2021/08/11 02:12:07;;;;;;;5.35;4.85;;;21.30;69.60;;;;;;5029000;28;20226;-84
2021/08/11 02:14:33;;;;;;;6.32;5.65;;;21.20;69.50;;;;;;4979729;28;20179;-84
2021/08/11 02:16:59;;;;;;;5.90;5.30;;;21.20;69.60;;;;;;5029409;28;20159;-80
2021/08/11 02:19:25;;;;;;;6.63;5.80;;;21.30;69.60;;;;;;5029318;28;20170;-80
2021/08/11 02:21:51;;;;;;;5.78;5.18;;;21.30;69.60;;;;;;5029078;28;20512;-80
2021/08/11 02:24:17;;;;;;;5.60;5.03;;;21.30;69.60;;;;;;5029644;28;20166;-81
2021/08/11 02:27:09;;;;;;;5.90;5.30;;;21.30;69.60;;;;;;5030253;28;20299;-78
2021/08/11 02:30:00;;;;;;;6.00;5.40;;;21.30;69.60;;;;;;5029347;28;20182;-84
2021/08/11 02:32:39;;;;;;;5.88;5.30;;;21.30;69.60;;;;;;5030177;28;20167;-78
2021/08/11 02:35:19;;;;;;;5.78;4.93;;;21.30;69.60;;;;;;5064014;28;20212;-80
2021/08/11 02:37:55;;;;;;;5.97;5.13;;;21.30;69.60;;;;;;5013966;28;20604;-82
2021/08/11 02:40:31;;;;;;;5.88;5.28;;;21.20;69.50;;;;;;4996571;28;20313;-85
2021/08/11 02:43:10;;;;;;;5.72;5.15;;;21.30;69.60;;;;;;5030571;28;20208;-85
2021/08/11 02:45:38;;;;;;;6.15;5.28;;;21.20;69.50;;;;;;5028853;28;20162;-80
2021/08/11 02:48:05;;;;;;;6.07;5.22;;;21.20;69.50;;;;;;5028686;28;20173;-81
2021/08/11 02:50:33;;;;;;;6.13;5.53;;;21.30;69.60;;;;;;5064233;28;20212;-83
2021/08/11 02:53:00;;;;;;;5.65;5.05;;;21.20;69.60;;;;;;5080265;28;20179;-79
2021/08/11 02:55:26;;;;;;;6.00;5.38;;;21.20;69.60;;;;;;5080649;28;20187;-83
2021/08/11 02:57:56;;;;;;;5.75;5.05;;;21.20;69.60;;;;;;5012606;28;20164;-80
2021/08/11 03:00:23;;;;;;;6.10;5.25;;;21.20;69.60;;;;;;5047063;28;20552;-83
2021/08/11 03:02:53;;;;;;;6.13;5.53;;;21.20;69.60;;;;;;4979383;28;20183;-84
2021/08/11 03:05:24;;;;;;;7.38;5.57;;;21.20;69.60;;;;;;4995243;28;20274;-82
2021/08/11 03:07:54;;;;;;;5.88;5.28;;;21.30;69.60;;;;;;5080366;28;20226;-82
2021/08/11 03:10:22;;;;;;;5.70;5.10;;;21.20;69.50;;;;;;4980311;28;20249;-85
2021/08/11 03:12:52;;;;;;;6.60;5.68;;;21.20;69.60;;;;;;5032148;28;20161;-85
2021/08/11 03:15:19;;;;;;;6.15;5.55;;;21.30;69.60;;;;;;5050546;28;20178;-86
2021/08/11 03:17:49;;;;;;;5.22;4.65;;;21.30;69.60;;;;;;5084257;28;20261;-80
2021/08/11 03:20:14;;;;;;;5.40;4.90;;;21.30;69.60;;;;;;5000913;28;20196;-84
2021/08/11 03:22:45;;;;;;;5.40;4.90;;;21.30;69.60;;;;;;5052901;28;20155;-81
2021/08/11 03:25:12;;;;;;;5.53;5.03;;;21.30;69.60;;;;;;5087202;28;20269;-80
2021/08/11 03:27:39;;;;;;;5.78;5.18;;;21.30;69.60;;;;;;5053279;28;20563;-80
2021/08/11 03:30:09;;;;;;;5.80;5.00;;;21.20;69.50;;;;;;5087246;28;20190;-81
2021/08/11 03:32:36;;;;;;;6.30;5.63;;;21.30;69.60;;;;;;5070611;28;20178;-81
2021/08/11 03:35:03;;;;;;;5.88;5.18;;;21.30;69.60;;;;;;5052680;28;20562;-83
2021/08/11 03:37:29;;;;;;;6.05;5.35;;;21.20;69.50;;;;;;5018692;28;20166;-83
2021/08/11 03:39:57;;;;;;;6.05;5.32;;;21.30;69.60;;;;;;5052586;28;20150;-82
2021/08/11 03:42:28;;;;;;;6.10;5.38;;;21.20;69.50;;;;;;5018610;28;20574;-84
2021/08/11 03:44:53;;;;;;;5.88;5.15;;;21.20;69.50;;;;;;5086901;28;20263;-80
2021/08/11 03:47:20;;;;;;;5.90;5.30;;;21.20;69.60;;;;;;5018080;28;20341;-80
2021/08/11 03:49:51;;;;;;;5.75;5.15;;;21.20;69.50;;;;;;5034934;28;20151;-83
2021/08/11 03:52:18;;;;;;;5.65;5.10;;;21.20;69.50;;;;;;5086941;28;20713;-81
2021/08/11 03:54:49;;;;;;;5.72;5.15;;;21.20;69.60;;;;;;5052486;28;20162;-83
2021/08/11 03:57:15;;;;;;;6.00;5.40;;;21.20;69.60;;;;;;5053582;28;20235;-86
2021/08/11 03:59:46;;;;;;;5.22;4.70;;;21.30;69.70;;;;;;5052376;28;20154;-84
2021/08/11 04:02:13;;;;;;;5.60;4.97;;;21.20;69.50;;;;;;5069495;28;20185;-84
2021/08/11 04:04:40;;;;;;;6.05;5.45;;;21.30;69.60;;;;;;5018372;28;20189;-82
2021/08/11 04:07:06;;;;;;;5.82;5.22;;;21.20;69.50;;;;;;5034888;28;20227;-84
2021/08/11 04:09:32;;;;;;;5.70;5.18;;;21.20;69.50;;;;;;5052202;28;20158;-84
2021/08/11 04:12:04;;;;;;;6.07;5.47;;;21.20;69.50;;;;;;5034333;28;20293;-82
2021/08/11 04:14:30;;;;;;;5.60;5.10;;;21.20;69.50;;;;;;4984705;28;20185;-81
2021/08/11 04:16:56;;;;;;;5.30;4.80;;;21.20;69.40;;;;;;5051993;28;20154;-86
2021/08/11 04:19:22;;;;;;;5.55;4.95;;;21.20;69.40;;;;;;5051935;28;20173;-82
2021/08/11 04:21:48;;;;;;;4.78;4.30;;;21.30;69.30;;;;;;5034661;28;20569;-81
2021/08/11 04:24:13;;;;;;;4.97;4.47;;;21.20;69.30;;;;;;5051723;28;20153;-81
2021/08/11 04:26:43;;;;;;;5.18;4.63;;;21.20;69.50;;;;;;5033954;28;20201;-80
2021/08/11 04:29:13;;;;;;;5.22;4.72;;;21.20;69.60;;;;;;5086149;28;20189;-81
2021/08/11 04:31:43;;;;;;;4.95;4.45;;;21.10;69.90;;;;;;5000363;28;20323;-85
2021/08/11 04:34:12;;;;;;;5.60;5.00;;;21.00;70.00;;;;;;5069031;28;20216;-85
2021/08/11 04:36:43;;;;;;;5.00;4.50;;;21.00;70.20;;;;;;4984356;28;20548;-83
2021/08/11 04:39:10;;;;;;;4.90;4.40;;;21.00;70.50;;;;;;5033825;28;20169;-83
2021/08/11 04:41:37;;;;;;;4.65;4.20;;;21.00;70.70;;;;;;5000219;28;20183;-83
2021/08/11 04:44:06;;;;;;;4.40;4.00;;;20.90;70.80;;;;;;5085216;28;20258;-83
2021/08/11 04:46:34;;;;;;;5.15;4.50;;;20.90;70.80;;;;;;5067852;28;20220;-85
2021/08/11 04:49:01;;;;;;;5.07;4.57;;;21.00;70.70;;;;;;5051755;28;20517;-85
2021/08/11 04:51:31;;;;;;;4.88;4.38;;;21.00;70.30;;;;;;5000106;28;20205;-81
2021/08/11 04:53:58;;;;;;;4.95;4.45;;;21.20;70.00;;;;;;5085512;28;20193;-84
2021/08/11 04:56:25;;;;;;;4.60;4.20;;;21.10;69.80;;;;;;5085050;28;20174;-84
2021/08/11 04:58:52;;;;;;;4.90;4.40;;;21.20;69.60;;;;;;5084917;28;20190;-80
2021/08/11 05:01:21;;;;;;;4.72;4.32;;;21.30;69.50;;;;;;5051654;28;20182;-81
2021/08/11 05:03:48;;;;;;;4.97;4.47;;;21.20;69.50;;;;;;5051737;28;20223;-79
2021/08/11 05:06:18;;;;;;;4.82;4.32;;;21.30;69.40;;;;;;5102256;28;20689;-85
2021/08/11 05:08:45;;;;;;;5.43;4.93;;;21.30;69.30;;;;;;5085048;28;20186;-85
2021/08/11 05:11:11;;;;;;;4.28;3.88;;;21.40;69.30;;;;;;5029959;28;20229;-83
2021/08/11 05:13:37;;;;;;;4.72;4.32;;;21.30;68.90;;;;;;5031056;28;20174;-86
2021/08/11 05:16:07;;;;;;;4.90;4.40;;;21.50;68.70;;;;;;5013505;28;20502;-86
2021/08/11 05:18:38;;;;;;;5.70;4.38;;;21.50;68.60;;;;;;5064672;28;20216;-82
2021/08/11 05:21:07;;;;;;;5.13;4.47;;;21.40;68.70;;;;;;5081743;28;20633;-80
2021/08/11 05:23:38;;;;;;;4.80;4.30;;;21.50;68.70;;;;;;5081764;28;20642;-81
2021/08/11 05:26:08;;;;;;;5.20;4.70;;;21.50;68.60;;;;;;5064623;28;20210;-86
2021/08/11 05:28:37;;;;;;;6.18;5.05;;;21.50;68.80;;;;;;4996383;28;20179;-83
2021/08/11 05:31:07;;;;;;;5.10;4.60;;;21.50;68.80;;;;;;5047808;28;20175;-81
2021/08/11 05:33:37;;;;;;;4.35;3.95;;;21.50;68.50;;;;;;5081334;28;20187;-83
2021/08/11 05:36:06;;;;;;;5.22;4.50;;;21.60;68.40;;;;;;5064367;28;20716;-83
2021/08/11 05:38:36;;;;;;;4.93;4.25;;;21.50;68.20;;;;;;5047659;28;20178;-87
2021/08/11 05:41:05;;;;;;;5.60;4.53;;;21.60;68.10;;;;;;4996330;28;20658;-83
2021/08/11 05:43:34;;;;;;;5.03;4.53;;;21.70;68.00;;;;;;5047157;28;20511;-85
2021/08/11 05:46:00;;;;;;;4.47;4.07;;;21.70;68.00;;;;;;5064009;28;20269;-86
2021/08/11 05:48:32;;;;;;;4.90;4.40;;;21.60;67.90;;;;;;5012887;28;20299;-80
2021/08/11 05:50:59;;;;;;;5.20;4.50;;;21.60;68.10;;;;;;5047668;28;20174;-83
2021/08/11 05:53:29;;;;;;;4.80;4.30;;;21.60;68.00;;;;;;5081137;28;20269;-82
2021/08/11 05:55:57;;;;;;;5.20;4.70;;;21.60;67.80;;;;;;5064242;28;20218;-81
2021/08/11 05:58:25;;;;;;;4.68;4.28;;;21.70;67.90;;;;;;4979799;28;20186;-79
2021/08/11 06:00:52;;;;;;;4.90;4.40;;;21.60;68.10;;;;;;4995850;28;20191;-83
2021/08/11 06:03:22;;;;;;;4.90;4.22;;;21.60;68.20;;;;;;5080838;28;20170;-86
2021/08/11 06:05:50;;;;;;;5.20;4.70;;;21.60;68.00;;;;;;4995926;28;20186;-83
2021/08/11 06:08:17;;;;;;;4.40;4.00;;;21.60;67.90;;;;;;5064021;28;20185;-87
2021/08/11 06:10:43;;;;;;;4.80;4.30;;;21.70;67.90;;;;;;5063726;28;20288;-84
2021/08/11 06:13:13;;;;;;;5.00;4.50;;;21.60;67.80;;;;;;5029342;28;20674;-84
2021/08/11 06:15:40;;;;;;;4.60;4.20;;;21.60;67.90;;;;;;4979447;28;20597;-84
2021/08/11 06:18:08;;;;;;;5.15;4.40;;;21.70;67.90;;;;;;4995634;28;20193;-82
2021/08/11 06:20:35;;;;;;;4.35;3.95;;;21.70;67.90;;;;;;5080476;28;20187;-82
2021/08/11 06:23:02;;;;;;;4.53;4.13;;;21.70;67.90;;;;;;4979552;28;20195;-84
2021/08/11 06:25:29;;;;;;;4.57;4.18;;;21.70;68.00;;;;;;5063760;28;20221;-81
2021/08/11 06:27:56;;;;;;;4.22;3.83;;;21.70;68.00;;;;;;5063371;28;20222;-84
2021/08/11 06:30:23;;;;;;;4.57;4.18;;;21.90;67.40;;;;;;5063598;28;20700;-83
2021/08/11 06:32:50;;;;;;;4.18;3.78;;;21.90;67.20;;;;;;5063630;28;20185;-85
2021/08/11 06:35:17;;;;;;;4.90;4.40;;;22.00;67.00;;;;;;5063713;28;20538;-81
2021/08/11 06:37:45;;;;;;;4.45;4.05;;;22.10;66.40;;;;;;5080640;28;20182;-85
2021/08/11 06:40:13;;;;;;;4.97;4.47;;;22.10;67.10;;;;;;5080560;28;20263;-80
2021/08/11 06:42:40;;;;;;;4.50;4.10;;;22.20;66.10;;;;;;4995686;28;20190;-81
2021/08/11 06:45:07;;;;;;;4.43;4.00;;;22.20;66.10;;;;;;4996199;28;20547;-80
2021/08/11 06:47:36;;;;;;;4.93;4.32;;;22.20;66.10;;;;;;5030126;28;20194;-81
2021/08/11 06:50:04;;;;;;;4.40;4.00;;;22.20;65.80;;;;;;5028766;28;20166;-86
2021/08/11 06:52:33;;;;;;;4.80;4.32;;;22.40;65.70;;;;;;5020888;28;20262;-85
2021/08/11 06:55:06;;;;;;;4.60;4.20;;;22.40;65.30;;;;;;5023260;28;20274;-85
2021/08/11 06:57:35;;;;;;;4.60;4.20;;;22.40;65.20;;;;;;4986332;28;20189;-83
2021/08/11 07:00:01;;;;;;;4.25;3.85;;;22.40;65.20;;;;;;5016894;28;20236;-81
2021/08/11 07:02:27;;;;;;;4.80;4.30;;;22.50;65.40;;;;;;5032704;28;20246;-82
2021/08/11 07:04:52;;;;;;;4.57;4.00;;;22.50;65.00;;;;;;5031738;28;20605;-81
2021/08/11 07:07:19;;;;;;;4.13;3.75;;;22.50;64.90;;;;;;5032190;28;20255;-81
2021/08/11 07:09:45;;;;;;;6.80;4.30;;;22.50;64.90;;;;;;5033091;28;20159;-82
2021/08/11 07:12:11;;;;;;;4.90;4.40;;;22.40;65.30;;;;;;5031755;28;20218;-82
2021/08/11 07:14:37;;;;;;;5.07;3.92;;;22.50;65.00;;;;;;5031708;28;20173;-83
2021/08/11 07:17:04;;;;;;;4.50;4.10;;;22.40;65.30;;;;;;5015308;28;20175;-82
2021/08/11 07:19:30;;;;;;;5.40;4.30;;;22.40;65.20;;;;;;5033391;28;20238;-82
2021/08/11 07:21:56;;;;;;;4.43;4.03;;;22.50;65.00;;;;;;5015618;28;20642;-83
2021/08/11 07:24:22;;;;;;;4.90;4.07;;;22.50;64.90;;;;;;5032500;28;20606;-83
2021/08/11 07:26:48;;;;;;;4.30;3.90;;;22.50;64.80;;;;;;5031418;28;20192;-82
2021/08/11 07:29:14;;;;;;;4.82;4.03;;;22.50;64.90;;;;;;5031442;28;20195;-82
2021/08/11 07:31:39;;;;;;;4.38;3.97;;;22.50;64.80;;;;;;5031706;28;20151;-82
2021/08/11 07:34:06;;;;;;;5.63;4.10;;;22.50;64.80;;;;;;4998893;28;20177;-82
2021/08/11 07:36:32;;;;;;;4.60;4.20;;;22.60;64.60;;;;;;5032515;28;20170;-82
2021/08/11 07:38:58;;;;;;;4.93;4.28;;;22.60;64.50;;;;;;5032020;28;20171;-83
2021/08/11 07:41:24;;;;;;;4.75;4.25;;;22.60;64.50;;;;;;5032722;28;20176;-82
2021/08/11 07:43:51;;;;;;;4.20;3.80;;;22.60;64.30;;;;;;5031408;28;20162;-82
2021/08/11 07:46:17;;;;;;;4.72;4.25;;;22.60;64.20;;;;;;5015561;28;20202;-82
2021/08/11 07:48:43;;;;;;;5.22;4.25;;;22.60;64.30;;;;;;5031574;28;20254;-83
2021/08/11 07:51:09;;;;;;;4.28;3.88;;;22.70;64.20;;;;;;5031276;28;20156;-82
2021/08/11 07:53:35;;;;;;;5.05;3.85;;;22.80;64.10;;;;;;5031235;28;20256;-82
2021/08/11 07:56:01;;;;;;;4.90;4.40;;;22.80;63.80;;;;;;5014813;28;20167;-82
2021/08/11 07:58:27;;;;;;;4.20;3.80;;;22.80;64.00;;;;;;5031189;28;20162;-81
2021/08/11 08:00:53;;;;;;;5.00;4.50;;;22.80;63.80;;;;;;5031242;28;20242;-82
2021/08/11 08:03:19;;;;;;;4.93;4.10;;;22.80;64.10;;;;;;5031454;28;20155;-82
2021/08/11 08:05:46;;;;;;;5.18;4.00;;;22.80;64.90;;;;;;5030187;28;20216;-82
2021/08/11 08:08:12;;;;;;;4.30;3.90;;;22.80;64.00;;;;;;5014896;28;20378;-81
2021/08/11 08:10:38;;;;;;;4.55;3.97;;;22.90;63.60;;;;;;5031306;28;20290;-82
2021/08/11 08:13:07;;;;;;;4.72;4.20;;;22.90;63.40;;;;;;5015488;28;20159;-81
2021/08/11 08:15:33;;;;;;;5.13;4.22;;;23.00;63.30;;;;;;5083212;28;20239;-83
2021/08/11 08:18:00;;;;;;;5.20;4.00;;;23.00;63.40;;;;;;5014648;28;20167;-81
2021/08/11 08:20:26;;;;;;;4.60;4.10;;;22.90;63.40;;;;;;5031040;28;20159;-84
2021/08/11 08:22:52;;;;;;;5.28;4.28;;;22.90;63.40;;;;;;5014449;28;20257;-85
2021/08/11 08:25:21;;;;;;;5.18;4.03;;;22.80;63.60;;;;;;5032525;28;20570;-80
2021/08/11 08:27:49;;;;;;;5.70;4.38;;;22.90;63.50;;;;;;5030141;28;20243;-81
2021/08/11 08:30:16;;;;;;;4.90;4.40;;;22.70;64.00;;;;;;5014082;28;20504;-81
2021/08/11 08:32:43;;;;;;;4.45;4.05;;;22.60;64.60;;;;;;5030702;28;20613;-82
2021/08/11 08:35:09;;;;;;;4.10;3.70;;;22.40;65.30;;;;;;5030492;28;20162;-81
2021/08/11 08:37:37;;;;;;;4.60;4.20;;;22.30;65.80;;;;;;5031696;28;20155;-81
2021/08/11 08:40:09;;;;;;;5.57;4.18;;;22.20;66.20;;;;;;5049229;28;20231;-81
2021/08/11 08:42:38;;;;;;;6.82;4.50;;;22.10;66.40;;;;;;4998109;28;20179;-81
2021/08/11 08:45:09;;;;;;;4.32;3.92;;;22.10;66.50;;;;;;4997111;28;20213;-82
2021/08/11 08:47:38;;;;;;;6.85;4.07;;;22.10;66.60;;;;;;4981286;28;20568;-82
2021/08/11 08:50:07;;;;;;;9.15;3.92;;;22.10;66.50;;;;;;4996901;28;20185;-80
2021/08/11 08:52:34;;;;;;;6.57;3.90;;;22.20;66.60;;;;;;4997202;28;20530;-80
2021/08/11 08:55:00;;;;;;;8.77;3.90;;;22.10;66.50;;;;;;5065057;28;20285;-82
2021/08/11 08:57:27;;;;;;;5.05;3.83;;;22.10;66.60;;;;;;4997762;28;20162;-80
2021/08/11 08:59:54;;;;;;;10.00;4.13;;;22.10;66.60;;;;;;5065150;28;20182;-82
2021/08/11 09:02:21;;;;;;;7.80;3.95;;;22.10;66.70;;;;;;4980682;28;20183;-82
2021/08/11 09:04:49;;;;;;;5.82;3.92;;;22.10;66.60;;;;;;5064663;28;20265;-81
2021/08/11 09:07:18;;;;;;;10.00;4.28;;;22.30;65.70;;;;;;5081253;28;20230;-82
2021/08/11 09:09:44;;;;;;;6.68;4.13;;;22.60;64.90;;;;;;5031222;28;20156;-81
2021/08/11 09:12:17;;;;;;;7.75;4.10;;;22.70;64.10;;;;;;5047524;28;20221;-83
2021/08/11 09:14:46;;;;;;;7.78;4.05;;;22.80;63.80;;;;;;5050551;28;20158;-80
2021/08/11 09:17:13;;;;;;;13.65;4.32;;;22.90;63.70;;;;;;5031534;28;20203;-81
2021/08/11 09:19:42;;;;;;;8.27;3.78;;;23.00;63.30;;;;;;5032816;28;20151;-82
2021/08/11 09:22:09;;;;;;;16.17;4.38;;;23.00;63.20;;;;;;5017191;28;20242;-84
2021/08/11 09:24:36;;;;;;;7.50;4.60;;;23.00;64.50;;;;;;5033146;28;20577;-81
2021/08/11 09:27:14;;;;;;;8.63;4.80;;;22.70;64.30;;;;;;5033084;28;20281;-84
2021/08/11 09:30:13;;;;;;;14.43;4.18;;;22.50;65.20;;;;;;5016551;28;20172;-82
2021/08/11 09:33:00;;;;;;;17.20;4.47;;;22.30;65.70;;;;;;5051019;28;20160;-81
2021/08/11 09:35:32;;;;;;;8.32;4.18;;;22.30;66.30;;;;;;5033145;28;20178;-83
2021/08/11 09:38:00;;;;;;;11.68;4.35;;;22.20;66.60;;;;;;5033250;28;20192;-82
2021/08/11 09:40:30;;;;;;;12.48;4.30;;;22.20;66.50;;;;;;5033159;28;20252;-83
2021/08/11 09:43:02;;;;;;;9.73;3.80;;;22.20;66.70;;;;;;5032593;28;20206;-83
2021/08/11 09:45:46;;;;;;;10.25;4.22;;;22.20;66.90;;;;;;5016892;28;20257;-81
2021/08/11 09:48:12;;;;;;;9.13;4.22;;;22.20;66.70;;;;;;5033511;28;20194;-82
2021/08/11 09:50:48;;;;;;;8.25;3.97;;;22.10;66.50;;;;;;5017180;28;20167;-83
2021/08/11 09:53:23;;;;;;;11.38;3.88;;;22.20;66.50;;;;;;5034562;28;20173;-81
2021/08/11 09:56:07;;;;;;;9.48;3.95;;;22.20;66.30;;;;;;5034261;28;20174;-83
2021/08/11 09:58:37;;;;;;;8.40;3.80;;;22.20;66.10;;;;;;5052302;28;20169;-85
2021/08/11 10:01:05;;;;;;;7.80;4.22;;;22.30;66.50;;;;;;5034602;28;20178;-82
2021/08/11 10:03:32;;;;;;;9.38;4.00;;;22.30;66.00;;;;;;5018660;28;20170;-83
2021/08/11 10:05:58;;;;;;;8.10;4.47;;;22.30;66.30;;;;;;5034628;28;20165;-83
2021/08/11 10:08:31;;;;;;;7.72;4.05;;;22.30;66.20;;;;;;5017100;28;20256;-84
2021/08/11 10:10:56;;;;;;;6.93;4.13;;;22.30;66.10;;;;;;5001713;28;20564;-82
2021/08/11 10:13:23;;;;;;;10.40;4.32;;;22.30;66.10;;;;;;5001470;28;20233;-84
2021/08/11 10:15:49;;;;;;;9.00;4.40;;;22.30;66.00;;;;;;5034056;28;20197;-82
2021/08/11 10:18:25;;;;;;;6.28;4.00;;;22.30;66.10;;;;;;5053212;28;20495;-83
2021/08/11 10:20:58;;;;;;;7.07;4.38;;;22.30;66.00;;;;;;5051135;28;20196;-80
2021/08/11 10:23:26;;;;;;;5.10;4.25;;;22.40;65.90;;;;;;5001571;28;20177;-84
2021/08/11 10:25:54;;;;;;;7.13;4.20;;;22.40;65.80;;;;;;4999023;28;20186;-84
2021/08/11 10:28:23;;;;;;;8.07;4.00;;;22.30;66.00;;;;;;5103310;28;20201;-81
2021/08/11 10:30:51;;;;;;;7.43;4.03;;;22.30;66.30;;;;;;5054581;28;20178;-81
2021/08/11 10:33:19;;;;;;;5.57;3.92;;;22.30;66.20;;;;;;5002700;28;20640;-81
2021/08/11 10:35:47;;;;;;;7.65;4.32;;;22.30;66.30;;;;;;5088362;28;20257;-81
2021/08/11 10:38:14;;;;;;;6.40;4.13;;;22.30;66.00;;;;;;5071500;28;20196;-83
2021/08/11 10:40:48;;;;;;;4.45;4.03;;;22.40;65.20;;;;;;5036352;28;20170;-83
2021/08/11 10:43:15;;;;;;;7.45;4.60;;;22.50;65.10;;;;;;5069687;28;20195;-80
2021/08/11 10:45:42;;;;;;;4.72;4.25;;;22.50;65.10;;;;;;5002347;28;20182;-83
2021/08/11 10:48:17;;;;;;;6.53;4.10;;;22.50;65.00;;;;;;5054054;28;20240;-83
2021/08/11 10:50:47;;;;;;;5.30;3.80;;;22.50;64.80;;;;;;5002403;28;20178;-80
2021/08/11 10:53:13;;;;;;;8.98;4.00;;;22.50;64.80;;;;;;5001927;28;20335;-81
2021/08/11 10:55:40;;;;;;;11.07;4.40;;;22.60;65.10;;;;;;5036162;28;20240;-80
2021/08/11 10:58:05;;;;;;;6.05;4.10;;;22.60;64.90;;;;;;5019462;28;20182;-82
2021/08/11 11:00:41;;;;;;;5.00;4.18;;;22.60;64.90;;;;;;5036176;28;20223;-83
2021/08/11 11:03:08;;;;;;;8.23;4.10;;;22.60;64.20;;;;;;5071746;28;20181;-82
2021/08/11 11:05:51;;;;;;;6.00;4.28;;;22.60;64.10;;;;;;5018828;28;20209;-82
2021/08/11 11:08:26;;;;;;;5.03;4.00;;;22.60;63.80;;;;;;5053138;28;20225;-81
2021/08/11 11:10:52;;;;;;;5.28;4.22;;;22.60;64.10;;;;;;5031704;28;20234;-80
2021/08/11 11:13:38;;;;;;;4.70;4.15;;;22.60;64.10;;;;;;5031980;28;20163;-82
2021/08/11 11:16:07;;;;;;;5.90;4.30;;;22.60;63.90;;;;;;5018979;28;20167;-82
2021/08/11 11:18:34;;;;;;;7.70;3.88;;;22.60;64.30;;;;;;5015504;28;20198;-80
2021/08/11 11:21:36;;;;;;;4.85;4.35;;;22.60;64.50;;;;;;5033989;28;20166;-84
2021/08/11 11:24:02;;;;;;;5.68;4.10;;;22.60;63.70;;;;;;5026541;28;20263;-85
2021/08/11 11:26:33;;;;;;;5.70;4.50;;;22.60;64.40;;;;;;5039997;28;20206;-85
2021/08/11 11:29:05;;;;;;;7.25;4.00;;;22.60;64.00;;;;;;5021086;28;20158;-79
2021/08/11 11:31:46;;;;;;;7.72;4.05;;;22.60;63.70;;;;;;5017682;28;20606;-82
2021/08/11 11:34:32;;;;;;;7.05;4.10;;;22.60;64.30;;;;;;5016547;28;20204;-83
2021/08/11 11:37:02;;;;;;;7.63;4.15;;;22.60;62.30;;;;;;5036660;28;20147;-82
2021/08/11 11:40:06;;;;;;;7.05;4.00;;;22.70;63.20;;;;;;5042276;28;20520;-82
2021/08/11 11:42:43;;;;;;;4.72;4.05;;;22.60;62.50;;;;;;5106500;28;20190;-84
2021/08/11 11:45:15;;;;;;;7.18;4.03;;;22.70;62.70;;;;;;5007872;28;20183;-79
2021/08/11 11:48:01;;;;;;;5.30;4.15;;;22.70;62.90;;;;;;4993223;28;20226;-79
2021/08/11 11:50:34;;;;;;;7.15;4.05;;;22.70;62.00;;;;;;5024242;28;20162;-84
2021/08/11 11:53:06;;;;;;;6.05;3.85;;;22.80;62.40;;;;;;4989352;28;20194;-81
2021/08/11 11:55:46;;;;;;;8.68;4.38;;;22.70;63.40;;;;;;5086869;28;20646;-86
2021/08/11 11:58:20;;;;;;;9.73;4.22;;;22.80;63.60;;;;;;4991076;28;20189;-82
2021/08/11 12:00:49;;;;;;;14.45;4.60;;;22.80;61.80;;;;;;4994940;28;20174;-80
2021/08/11 12:03:16;;;;;;;13.45;4.38;;;22.90;62.70;;;;;;4991630;28;20187;-81
2021/08/11 12:05:46;;;;;;;15.02;4.32;;;22.90;62.90;;;;;;5007566;28;20159;-82
2021/08/11 12:08:16;;;;;;;14.50;4.30;;;22.90;63.20;;;;;;5008368;28;20305;-83
2021/08/11 12:10:42;;;;;;;14.35;4.10;;;22.90;63.10;;;;;;5067600;28;20222;-80
2021/08/11 12:13:09;;;;;;;9.60;4.45;;;22.80;63.80;;;;;;5015603;28;20514;-83
2021/08/11 12:15:39;;;;;;;11.50;4.20;;;22.90;63.20;;;;;;5001400;28;20266;-86
2021/08/11 12:18:14;;;;;;;20.10;4.75;;;22.80;63.90;;;;;;5004312;28;20204;-84
2021/08/11 12:20:40;;;;;;;8.98;4.32;;;22.80;64.50;;;;;;5002993;28;20204;-86
2021/08/11 12:23:18;;;;;;;14.63;4.40;;;22.70;64.30;;;;;;5002600;28;20190;-85
2021/08/11 12:25:45;;;;;;;13.13;5.00;;;22.70;64.60;;;;;;5041058;28;20150;-83
2021/08/11 12:28:12;;;;;;;8.73;4.30;;;22.70;64.00;;;;;;5009636;28;20203;-80
2021/08/11 12:30:41;;;;;;;6.38;4.38;;;22.70;64.50;;;;;;5024300;28;20157;-80
2021/08/11 12:33:06;;;;;;;9.65;4.20;;;22.80;64.10;;;;;;5024669;28;20147;-80
2021/08/11 12:35:32;;;;;;;7.45;4.18;;;22.80;64.40;;;;;;5026671;28;20248;-80
2021/08/11 12:37:58;;;;;;;11.00;4.05;;;22.80;64.50;;;;;;5041529;28;20162;-83
2021/08/11 12:40:26;;;;;;;8.27;4.43;;;22.70;64.50;;;;;;5009428;28;20177;-83
2021/08/11 12:42:53;;;;;;;15.20;4.10;;;22.80;64.60;;;;;;5041435;28;20155;-84
2021/08/11 12:45:20;;;;;;;6.55;4.07;;;22.70;64.60;;;;;;5022785;28;20155;-84
2021/08/11 12:47:47;;;;;;;8.68;4.03;;;22.60;64.50;;;;;;4987482;28;20222;-84
2021/08/11 12:50:27;;;;;;;7.50;4.15;;;22.70;64.90;;;;;;4988259;28;20206;-83
2021/08/11 12:52:55;;;;;;;9.27;4.47;;;22.60;64.70;;;;;;5005087;28;20273;-83
2021/08/11 12:55:33;;;;;;;8.02;4.00;;;22.60;64.80;;;;;;5039598;28;20563;-83
2021/08/11 12:58:00;;;;;;;8.13;4.30;;;22.60;64.90;;;;;;5008278;28;20277;-83